createdAt,value
2022-12-03T00:00:37.116Z,123.90
2022-12-03T00:03:05.519Z,107.33
2022-12-03T00:05:33.759Z,101.90
2022-12-03T00:08:01.798Z,103.80
2022-12-03T00:10:29.924Z,110.87
2022-12-03T00:12:57.810Z,120.47
2022-12-03T00:15:27.635Z,100.40
2022-12-03T00:17:55.756Z,104.60
2022-12-03T00:20:25.304Z,105.23
2022-12-03T00:22:53.381Z,133.23
2022-12-03T00:25:21.370Z,105.87
2022-12-03T00:27:50.475Z,92.17
2022-12-03T00:30:18.587Z,134.43
2022-12-03T00:32:47.925Z,112.50
2022-12-03T00:35:16.115Z,140.13
2022-12-03T00:37:44.070Z,95.23
2022-12-03T00:40:13.573Z,84.10
2022-12-03T00:42:41.547Z,84.67
2022-12-03T00:45:10.191Z,127.90
2022-12-03T00:47:38.143Z,87.83
2022-12-03T00:50:08.791Z,91.23
2022-12-03T00:52:37.081Z,98.47
2022-12-03T00:55:05.788Z,90.67
2022-12-03T00:57:34.031Z,92.30
2022-12-03T01:00:02.015Z,107.00
2022-12-03T01:02:29.991Z,107.90
2022-12-03T01:04:58.380Z,141.13
2022-12-03T01:07:27.892Z,90.60
2022-12-03T01:09:55.892Z,123.33
2022-12-03T01:12:23.889Z,286.03
2022-12-03T01:14:52.214Z,155.03
2022-12-03T01:17:20.773Z,108.97
2022-12-03T01:19:48.816Z,124.13
2022-12-03T01:22:16.877Z,99.33
2022-12-03T01:24:46.265Z,101.27
2022-12-03T01:27:14.199Z,155.43
2022-12-03T01:29:42.567Z,104.00
2022-12-03T01:32:19.689Z,89.33
2022-12-03T01:34:49.770Z,101.93
2022-12-03T01:37:18.522Z,124.47
2022-12-03T01:39:48.075Z,105.53
2022-12-03T01:42:19.042Z,100.77
2022-12-03T01:44:47.733Z,138.40
2022-12-03T01:47:18.768Z,78.00
2022-12-03T01:49:51.419Z,80.90
2022-12-03T01:52:21.672Z,87.70
2022-12-03T01:54:54.761Z,107.67
2022-12-03T01:57:27.310Z,123.23
2022-12-03T01:59:58.776Z,172.00
2022-12-03T02:02:29.661Z,113.10
2022-12-03T02:04:57.926Z,224.40
2022-12-03T02:07:28.364Z,103.47
2022-12-03T02:10:00.163Z,106.97
2022-12-03T02:12:33.703Z,92.33
2022-12-03T02:15:02.152Z,106.53
2022-12-03T02:17:30.436Z,89.67
2022-12-03T02:19:59.574Z,93.93
2022-12-03T02:22:39.177Z,89.43
2022-12-03T02:25:12.653Z,102.37
2022-12-03T02:27:41.040Z,86.60
2022-12-03T02:30:10.824Z,107.27
2022-12-03T02:32:39.210Z,81.67
2022-12-03T02:35:07.937Z,78.17
2022-12-03T02:37:37.104Z,70.47
2022-12-03T02:40:08.487Z,70.00
2022-12-03T02:42:36.931Z,72.10
2022-12-03T02:45:11.084Z,76.00
2022-12-03T02:47:42.393Z,72.03
2022-12-03T02:50:12.489Z,91.93
2022-12-03T02:52:41.794Z,71.30
2022-12-03T02:55:10.370Z,72.80
2022-12-03T02:57:41.211Z,73.20
2022-12-03T03:00:11.418Z,71.13
2022-12-03T03:02:41.391Z,75.37
2022-12-03T03:05:12.155Z,71.03
2022-12-03T03:07:41.526Z,94.60
2022-12-03T03:10:13.338Z,76.07
2022-12-03T03:12:42.899Z,111.53
2022-12-03T03:15:12.567Z,94.87
2022-12-03T03:17:41.443Z,78.53
2022-12-03T03:20:12.100Z,79.10
2022-12-03T03:22:41.571Z,70.20
2022-12-03T03:25:13.396Z,89.63
2022-12-03T03:27:43.709Z,72.20
2022-12-03T03:30:12.886Z,86.23
2022-12-03T03:32:42.552Z,76.73
2022-12-03T03:35:11.795Z,67.57
2022-12-03T03:37:40.164Z,79.37
2022-12-03T03:40:09.788Z,69.03
2022-12-03T03:42:39.097Z,70.43
2022-12-03T03:45:10.330Z,67.20
2022-12-03T03:47:38.720Z,70.60
2022-12-03T03:50:08.843Z,72.77
2022-12-03T03:52:38.609Z,64.77
2022-12-03T03:55:07.697Z,69.93
2022-12-03T03:57:35.713Z,64.10
2022-12-03T04:00:04.825Z,63.90
2022-12-03T04:02:35.006Z,64.27
2022-12-03T04:05:04.048Z,65.17
2022-12-03T04:07:32.100Z,67.90
2022-12-03T04:10:00.138Z,84.20
2022-12-03T04:12:50.885Z,82.17
2022-12-03T04:15:19.592Z,71.10
2022-12-03T04:18:09.639Z,62.97
2022-12-03T04:20:37.782Z,64.30
2022-12-03T04:23:05.401Z,59.83
2022-12-03T04:25:51.446Z,58.87
2022-12-03T04:28:36.922Z,66.17
2022-12-03T04:31:25.690Z,63.40
2022-12-03T04:34:23.797Z,62.40
2022-12-03T04:36:52.017Z,64.00
2022-12-03T04:39:20.063Z,72.13
2022-12-03T04:41:48.150Z,86.10
2022-12-03T04:44:33.445Z,72.90
2022-12-03T04:47:02.070Z,79.27
2022-12-03T04:49:31.996Z,91.50
2022-12-03T04:52:00.005Z,95.43
2022-12-03T04:54:28.491Z,112.33
2022-12-03T04:56:56.523Z,93.33
2022-12-03T04:59:24.761Z,98.60
2022-12-03T05:01:52.780Z,95.77
2022-12-03T05:04:39.404Z,94.30
2022-12-03T05:07:07.382Z,102.07
2022-12-03T05:09:35.968Z,91.73
2022-12-03T05:12:04.043Z,87.40
2022-12-03T05:14:32.111Z,97.27
2022-12-03T05:17:00.141Z,83.43
2022-12-03T05:19:42.605Z,95.87
2022-12-03T05:22:11.953Z,97.60
2022-12-03T05:24:39.992Z,95.87
2022-12-03T05:27:07.967Z,88.60
2022-12-03T05:29:35.965Z,85.93
2022-12-03T05:32:04.195Z,94.07
2022-12-03T05:34:32.173Z,89.43
2022-12-03T05:37:00.135Z,95.13
2022-12-03T05:39:29.493Z,104.93
2022-12-03T05:42:14.784Z,91.37
2022-12-03T05:44:42.806Z,83.93
2022-12-03T05:47:10.766Z,91.53
2022-12-03T05:49:38.788Z,80.43
2022-12-03T05:52:07.060Z,83.43
2022-12-03T05:54:36.816Z,82.00
2022-12-03T05:57:05.099Z,90.47
2022-12-03T05:59:33.118Z,64.73
2022-12-03T06:02:01.195Z,67.77
2022-12-03T06:04:29.418Z,79.03
2022-12-03T06:06:58.048Z,87.10
2022-12-03T06:09:26.023Z,71.33
2022-12-03T06:11:55.546Z,62.67
2022-12-03T06:14:24.450Z,70.07
2022-12-03T06:16:52.454Z,67.83
2022-12-03T06:19:20.771Z,68.80
2022-12-03T06:21:48.761Z,61.17
2022-12-03T06:24:16.777Z,63.00
2022-12-03T06:26:45.002Z,56.17
2022-12-03T06:29:14.341Z,62.37
2022-12-03T06:31:42.790Z,51.50
2022-12-03T06:34:10.853Z,52.90
2022-12-03T06:36:38.861Z,53.80
2022-12-03T06:39:06.982Z,52.00
2022-12-03T06:41:34.931Z,49.67
2022-12-03T06:44:03.098Z,49.90
2022-12-03T06:46:32.539Z,54.30
2022-12-03T06:49:00.631Z,46.70
2022-12-03T06:51:28.926Z,43.27
2022-12-03T06:53:56.976Z,39.35
2022-12-03T06:56:31.096Z,45.00
2022-12-03T06:59:02.557Z,43.07
2022-12-03T07:01:32.101Z,43.77
2022-12-03T07:04:00.108Z,44.63
2022-12-03T07:06:31.309Z,42.83
2022-12-03T07:08:59.349Z,50.67
2022-12-03T07:11:32.982Z,44.13
2022-12-03T07:14:05.598Z,42.30
2022-12-03T07:16:39.551Z,47.07
2022-12-03T07:19:08.239Z,49.07
2022-12-03T07:21:36.303Z,48.53
2022-12-03T07:24:04.552Z,44.70
2022-12-03T07:26:32.649Z,45.77
2022-12-03T07:29:01.480Z,48.70
2022-12-03T07:31:29.503Z,41.87
2022-12-03T07:33:58.866Z,39.00
2022-12-03T07:36:26.884Z,42.13
2022-12-03T07:38:54.887Z,36.70
2022-12-03T07:41:23.222Z,37.97
2022-12-03T07:43:51.341Z,34.53
2022-12-03T07:46:19.426Z,37.03
2022-12-03T07:48:47.514Z,37.00
2022-12-03T07:51:16.943Z,37.13
2022-12-03T07:53:45.123Z,36.57
2022-12-03T07:56:13.171Z,39.70
2022-12-03T07:58:41.155Z,39.43
2022-12-03T08:01:10.331Z,39.00
2022-12-03T08:03:38.541Z,46.37
2022-12-03T08:06:06.944Z,31.73
2022-12-03T08:08:36.427Z,31.00
2022-12-03T08:11:05.177Z,29.47
2022-12-03T08:13:35.785Z,29.90
2022-12-03T08:16:16.962Z,30.80
2022-12-03T08:18:45.662Z,31.47
2022-12-03T08:21:16.060Z,31.90
2022-12-03T08:23:45.922Z,32.37
2022-12-03T08:26:21.266Z,29.87
2022-12-03T08:28:49.442Z,32.30
2022-12-03T08:31:20.586Z,31.97
2022-12-03T08:33:49.882Z,30.77
2022-12-03T08:36:22.955Z,32.60
2022-12-03T08:38:55.704Z,34.73
2022-12-03T08:41:37.843Z,34.23
2022-12-03T08:44:17.361Z,34.17
2022-12-03T08:46:46.322Z,34.63
2022-12-03T08:49:15.742Z,34.07
2022-12-03T08:51:44.292Z,34.80
2022-12-03T08:54:20.533Z,33.17
2022-12-03T08:56:48.707Z,34.83
2022-12-03T08:59:29.390Z,33.77
2022-12-03T09:01:58.012Z,29.53
2022-12-03T09:04:30.127Z,35.40
2022-12-03T09:06:59.241Z,32.80
2022-12-03T09:09:28.764Z,33.33
2022-12-03T09:11:57.057Z,32.53
2022-12-03T09:14:25.247Z,30.53
2022-12-03T09:16:55.542Z,35.97
2022-12-03T09:19:25.326Z,31.73
2022-12-03T09:21:53.731Z,35.57
2022-12-03T09:24:22.192Z,33.77
2022-12-03T09:26:51.587Z,34.50
2022-12-03T09:29:19.643Z,35.80
2022-12-03T09:31:48.091Z,35.53
2022-12-03T09:34:16.315Z,34.60
2022-12-03T09:36:44.503Z,37.37
2022-12-03T09:39:12.573Z,32.23
2022-12-03T09:41:40.955Z,32.83
2022-12-03T09:44:17.470Z,35.80
2022-12-03T09:46:47.600Z,34.23
2022-12-03T09:49:19.708Z,33.03
2022-12-03T09:51:48.072Z,34.97
2022-12-03T09:54:24.489Z,34.23
2022-12-03T09:56:53.541Z,34.97
2022-12-03T09:59:24.606Z,34.20
2022-12-03T10:01:53.818Z,35.47
2022-12-03T10:04:22.480Z,32.63
2022-12-03T10:06:51.546Z,34.60
2022-12-03T10:09:25.403Z,33.67
2022-12-03T10:11:53.519Z,31.27
2022-12-03T10:14:23.006Z,36.13
2022-12-03T10:16:51.915Z,33.60
2022-12-03T10:19:24.104Z,34.03
2022-12-03T10:21:52.174Z,33.33
2022-12-03T10:24:26.584Z,29.50
2022-12-03T10:26:58.211Z,34.50
2022-12-03T10:29:33.686Z,35.43
2022-12-03T10:32:04.644Z,30.50
2022-12-03T10:34:34.654Z,32.23
2022-12-03T10:37:12.662Z,29.37
2022-12-03T10:40:01.808Z,32.57
2022-12-03T10:42:31.498Z,31.63
2022-12-03T10:45:15.500Z,32.03
2022-12-03T10:47:44.336Z,32.17
2022-12-03T10:50:19.445Z,32.27
2022-12-03T10:52:48.086Z,29.87
2022-12-03T10:55:17.056Z,36.37
2022-12-03T10:57:46.248Z,35.17
2022-12-03T11:00:19.585Z,30.97
2022-12-03T11:02:54.900Z,30.37
2022-12-03T11:05:28.197Z,30.13
2022-12-03T11:08:00.415Z,33.87
2022-12-03T11:10:28.602Z,35.07
2022-12-03T11:13:31.040Z,33.67
2022-12-03T11:16:01.135Z,30.23
2022-12-03T11:19:01.436Z,33.00
2022-12-03T11:21:30.039Z,35.23
2022-12-03T11:24:19.995Z,33.83
2022-12-03T11:27:08.344Z,36.97
2022-12-03T11:29:57.285Z,38.77
2022-12-03T11:33:09.558Z,37.40
2022-12-03T11:36:15.562Z,36.47
2022-12-03T11:38:53.937Z,38.23
2022-12-03T11:41:25.734Z,36.23
2022-12-03T11:44:29.560Z,35.13
2022-12-03T11:47:00.019Z,36.97
2022-12-03T11:49:40.527Z,34.93
2022-12-03T11:52:29.351Z,35.50
2022-12-03T11:55:14.725Z,34.33
2022-12-03T11:57:44.302Z,36.83
2022-12-03T12:00:21.010Z,33.67
2022-12-03T12:02:49.698Z,33.23
2022-12-03T12:05:27.122Z,31.93
2022-12-03T12:07:57.444Z,39.03
2022-12-03T12:10:46.074Z,36.40
2022-12-03T12:13:45.026Z,36.27
2022-12-03T12:16:13.200Z,37.03
2022-12-03T12:18:42.950Z,37.73
2022-12-03T12:21:44.176Z,38.27
2022-12-03T12:24:48.207Z,35.07
2022-12-03T12:27:18.003Z,38.63
2022-12-03T12:29:51.691Z,36.17
2022-12-03T12:32:23.598Z,36.93
2022-12-03T12:34:55.557Z,36.27
2022-12-03T12:37:30.574Z,35.10
2022-12-03T12:40:00.024Z,34.37
2022-12-03T12:42:34.205Z,31.90
2022-12-03T12:45:14.158Z,33.67
2022-12-03T12:47:48.607Z,33.23
2022-12-03T12:50:17.798Z,33.97
2022-12-03T12:52:52.425Z,36.37
2022-12-03T12:55:24.164Z,37.30
2022-12-03T12:57:52.698Z,36.90
2022-12-03T13:00:24.189Z,38.77
2022-12-03T13:02:56.629Z,38.40
2022-12-03T13:05:28.013Z,36.33
2022-12-03T13:07:57.102Z,40.97
2022-12-03T13:10:36.786Z,38.93
2022-12-03T13:13:21.632Z,39.33
2022-12-03T13:15:53.077Z,38.87
2022-12-03T13:18:40.835Z,39.00
2022-12-03T13:21:23.831Z,38.07
2022-12-03T13:23:53.895Z,40.57
2022-12-03T13:26:36.553Z,37.37
2022-12-03T13:29:12.139Z,40.23
2022-12-03T13:31:43.704Z,34.43
2022-12-03T13:34:17.412Z,33.87
2022-12-03T13:36:52.003Z,34.77
2022-12-03T13:39:28.834Z,34.97
2022-12-03T13:42:16.355Z,33.57
2022-12-03T13:44:46.674Z,35.07
2022-12-03T13:47:19.859Z,36.00
2022-12-03T13:49:53.550Z,33.70
2022-12-03T13:52:24.860Z,32.27
2022-12-03T13:54:55.257Z,33.40
2022-12-03T13:57:25.177Z,35.17
2022-12-03T13:59:53.630Z,36.03
2022-12-03T14:02:21.950Z,38.07
2022-12-03T14:04:51.351Z,43.57
2022-12-03T14:07:21.126Z,41.83
2022-12-03T14:09:49.301Z,37.13
2022-12-03T14:12:28.961Z,38.87
2022-12-03T14:14:58.564Z,33.47
2022-12-03T14:17:27.157Z,33.90
2022-12-03T14:19:56.309Z,33.77
2022-12-03T14:22:25.486Z,29.87
2022-12-03T14:24:54.777Z,32.70
2022-12-03T14:27:24.613Z,33.13
2022-12-03T14:29:53.118Z,36.47
2022-12-03T14:32:23.291Z,36.57
2022-12-03T14:34:51.404Z,40.40
2022-12-03T14:37:19.715Z,34.30
2022-12-03T14:39:47.844Z,43.00
2022-12-03T14:42:16.899Z,38.67
2022-12-03T14:44:49.366Z,40.67
2022-12-03T14:47:19.177Z,42.67
2022-12-03T14:49:48.634Z,42.50
2022-12-03T14:52:17.007Z,40.97
2022-12-03T14:54:46.236Z,41.40
2022-12-03T14:57:16.061Z,38.33
2022-12-03T14:59:45.052Z,41.67
2022-12-03T15:02:13.853Z,42.20
2022-12-03T15:04:42.660Z,43.10
2022-12-03T15:07:12.163Z,40.70
2022-12-03T15:09:40.623Z,44.80
2022-12-03T15:12:09.109Z,42.40
2022-12-03T15:14:37.291Z,45.03
2022-12-03T15:17:05.436Z,59.97
2022-12-03T15:19:33.601Z,49.03
2022-12-03T15:22:02.315Z,44.33
2022-12-03T15:24:31.807Z,40.13
2022-12-03T15:27:00.018Z,45.20
2022-12-03T15:29:28.099Z,43.33
2022-12-03T15:31:59.350Z,42.00
2022-12-03T15:34:28.015Z,47.23
2022-12-03T15:36:56.131Z,43.23
2022-12-03T15:39:24.259Z,44.77
2022-12-03T15:41:53.810Z,40.83
2022-12-03T15:44:21.899Z,38.17
2022-12-03T15:46:50.174Z,42.30
2022-12-03T15:49:18.263Z,42.67
2022-12-03T15:51:46.307Z,41.37
2022-12-03T15:54:14.346Z,44.17
2022-12-03T15:56:42.444Z,38.70
2022-12-03T15:59:13.513Z,39.73
2022-12-03T16:01:41.715Z,41.60
2022-12-03T16:04:09.878Z,43.77
2022-12-03T16:06:38.061Z,42.63
2022-12-03T16:09:06.117Z,43.53
2022-12-03T16:11:34.824Z,43.37
2022-12-03T16:14:02.959Z,45.47
2022-12-03T16:16:32.487Z,46.23
2022-12-03T16:19:00.671Z,45.33
2022-12-03T16:21:28.982Z,40.37
2022-12-03T16:23:57.584Z,42.57
2022-12-03T16:26:26.605Z,44.07
2022-12-03T16:28:54.789Z,40.07
2022-12-03T16:31:23.172Z,45.17
2022-12-03T16:33:52.862Z,46.00
2022-12-03T16:36:21.139Z,51.13
2022-12-03T16:38:49.104Z,47.87
2022-12-03T16:41:17.124Z,48.87
2022-12-03T16:43:47.452Z,46.77
2022-12-03T16:46:26.445Z,49.40
2022-12-03T16:48:57.977Z,49.47
2022-12-03T16:51:27.762Z,48.77
2022-12-03T16:53:56.096Z,49.87
2022-12-03T16:56:24.165Z,46.87
2022-12-03T16:58:52.360Z,49.10
2022-12-03T17:01:20.500Z,43.80
2022-12-03T17:03:48.650Z,53.10
2022-12-03T17:06:18.042Z,50.10
2022-12-03T17:08:49.657Z,48.87
2022-12-03T17:11:19.197Z,46.17
2022-12-03T17:13:47.783Z,46.53
2022-12-03T17:16:15.986Z,48.60
2022-12-03T17:18:44.693Z,46.77
2022-12-03T17:21:12.865Z,49.37
2022-12-03T17:23:42.773Z,50.33
2022-12-03T17:26:10.834Z,49.80
2022-12-03T17:28:38.974Z,53.70
2022-12-03T17:31:07.260Z,49.23
2022-12-03T17:33:35.735Z,44.37
2022-12-03T17:36:04.345Z,44.63
2022-12-03T17:38:38.812Z,46.37
2022-12-03T17:41:08.854Z,49.60
2022-12-03T17:43:36.900Z,45.20
2022-12-03T17:46:06.906Z,45.50
2022-12-03T17:48:34.960Z,43.77
2022-12-03T17:51:02.980Z,51.43
2022-12-03T17:53:30.977Z,50.33
2022-12-03T17:55:58.992Z,57.40
2022-12-03T17:58:29.045Z,48.63
2022-12-03T18:01:02.029Z,52.80
2022-12-03T18:03:31.030Z,47.57
2022-12-03T18:05:59.058Z,44.80
2022-12-03T18:08:27.549Z,38.07
2022-12-03T18:10:58.683Z,42.37
2022-12-03T18:13:28.244Z,40.37
2022-12-03T18:15:56.469Z,41.73
2022-12-03T18:18:24.596Z,42.03
2022-12-03T18:20:54.109Z,42.10
2022-12-03T18:23:22.472Z,39.83
2022-12-03T18:25:50.584Z,38.37
2022-12-03T18:28:18.832Z,42.57
2022-12-03T18:30:52.416Z,39.37
2022-12-03T18:33:23.547Z,35.40
2022-12-03T18:35:54.076Z,38.80
2022-12-03T18:38:23.756Z,35.40
2022-12-03T18:40:54.570Z,31.13
2022-12-03T18:43:22.628Z,35.13
2022-12-03T18:45:53.164Z,38.90
2022-12-03T18:48:21.461Z,36.93
2022-12-03T18:50:49.623Z,36.50
2022-12-03T18:53:20.444Z,32.23
2022-12-03T18:55:48.947Z,38.03
2022-12-03T18:58:17.773Z,37.43
2022-12-03T19:00:45.859Z,39.80
2022-12-03T19:03:15.384Z,40.57
2022-12-03T19:05:43.520Z,42.37
2022-12-03T19:08:14.955Z,38.43
2022-12-03T19:10:48.526Z,37.93
2022-12-03T19:13:16.543Z,37.63
2022-12-03T19:15:46.328Z,39.30
2022-12-03T19:18:15.700Z,41.63
2022-12-03T19:20:43.798Z,42.80
2022-12-03T19:23:12.362Z,42.20
2022-12-03T19:25:40.568Z,45.40
2022-12-03T19:28:08.669Z,42.93
2022-12-03T19:30:38.269Z,41.47
2022-12-03T19:33:06.313Z,42.17
2022-12-03T19:35:40.506Z,45.83
2022-12-03T19:38:08.621Z,45.10
2022-12-03T19:40:36.682Z,42.03
2022-12-03T19:43:04.744Z,50.17
2022-12-03T19:45:32.770Z,42.87
2022-12-03T19:48:02.660Z,44.73
2022-12-03T19:50:30.684Z,44.93
2022-12-03T19:53:00.141Z,44.17
2022-12-03T19:55:28.146Z,37.47
2022-12-03T19:57:56.175Z,41.70
2022-12-03T20:00:24.778Z,43.13
2022-12-03T20:02:52.920Z,38.87
2022-12-03T20:05:21.002Z,37.00
2022-12-03T20:07:49.057Z,39.43
2022-12-03T20:10:19.339Z,40.23
2022-12-03T20:12:50.878Z,44.33
2022-12-03T20:15:18.976Z,43.07
2022-12-03T20:17:47.184Z,40.17
2022-12-03T20:20:15.351Z,39.33
2022-12-03T20:22:43.660Z,38.93
2022-12-03T20:25:12.446Z,33.40
2022-12-03T20:27:41.914Z,39.20
2022-12-03T20:30:11.374Z,37.23
2022-12-03T20:32:45.072Z,44.07
2022-12-03T20:35:14.067Z,46.73
2022-12-03T20:37:42.107Z,45.33
2022-12-03T20:40:11.646Z,45.83
2022-12-03T20:42:41.166Z,45.20
2022-12-03T20:45:10.357Z,45.77
2022-12-03T20:47:39.624Z,45.73
2022-12-03T20:50:08.721Z,44.20
2022-12-03T20:52:36.943Z,49.30
2022-12-03T20:55:05.352Z,54.40
2022-12-03T20:57:33.393Z,60.33
2022-12-03T21:00:03.742Z,54.20
2022-12-03T21:02:31.869Z,51.73
2022-12-03T21:05:00.101Z,62.17
2022-12-03T21:07:28.373Z,59.70
2022-12-03T21:09:56.800Z,63.70
2022-12-03T21:12:25.485Z,55.03
2022-12-03T21:14:53.574Z,53.73
2022-12-03T21:17:23.627Z,44.10
2022-12-03T21:19:51.961Z,47.53
2022-12-03T21:22:20.210Z,42.40
2022-12-03T21:24:48.801Z,48.23
2022-12-03T21:27:21.621Z,44.90
2022-12-03T21:29:50.156Z,44.60
2022-12-03T21:32:18.329Z,46.63
2022-12-03T21:34:47.756Z,47.33
2022-12-03T21:37:16.824Z,52.67
2022-12-03T21:39:44.817Z,49.37
2022-12-03T21:42:18.714Z,50.57
2022-12-03T21:45:00.875Z,45.47
2022-12-03T21:47:35.144Z,48.90
2022-12-03T21:50:08.637Z,50.53
2022-12-03T21:52:37.026Z,49.67
2022-12-03T21:55:05.331Z,51.00
2022-12-03T21:57:35.836Z,51.47
2022-12-03T22:00:05.077Z,50.23
2022-12-03T22:02:33.143Z,46.13
2022-12-03T22:05:01.252Z,50.50
2022-12-03T22:07:33.091Z,52.43
2022-12-03T22:10:02.078Z,49.30
2022-12-03T22:12:30.147Z,51.67
2022-12-03T22:14:58.174Z,52.10
2022-12-03T22:17:26.687Z,49.90
2022-12-03T22:19:54.967Z,50.10
2022-12-03T22:22:23.508Z,51.63
2022-12-03T22:24:52.914Z,53.57
2022-12-03T22:27:20.915Z,55.90
2022-12-03T22:29:48.988Z,56.73
2022-12-03T22:32:17.129Z,53.10
2022-12-03T22:34:45.517Z,52.77
2022-12-03T22:37:13.608Z,52.77
2022-12-03T22:39:41.657Z,51.20
2022-12-03T22:42:11.096Z,53.23
2022-12-03T22:44:39.078Z,48.57
2022-12-03T22:47:07.984Z,49.77
2022-12-03T22:49:35.996Z,50.50
2022-12-03T22:52:04.038Z,51.93
2022-12-03T22:54:32.099Z,53.80
2022-12-03T22:57:00.090Z,53.10
2022-12-03T22:59:29.946Z,52.63
2022-12-03T23:01:57.999Z,68.90
2022-12-03T23:04:26.035Z,51.57
2022-12-03T23:06:54.052Z,56.90
2022-12-03T23:09:22.113Z,78.53
2022-12-03T23:11:50.354Z,59.60
2022-12-03T23:14:18.497Z,64.23
2022-12-03T23:16:47.916Z,60.63
2022-12-03T23:19:16.478Z,56.97
2022-12-03T23:21:44.567Z,57.67
2022-12-03T23:24:12.823Z,65.80
2022-12-03T23:26:40.849Z,57.40
2022-12-03T23:29:09.034Z,66.17
2022-12-03T23:31:37.267Z,68.27
2022-12-03T23:34:07.246Z,60.37
2022-12-03T23:36:35.972Z,65.60
2022-12-03T23:39:04.058Z,55.80
2022-12-03T23:41:32.075Z,58.30
2022-12-03T23:44:00.255Z,60.73
2022-12-03T23:46:28.974Z,77.97
2022-12-03T23:48:59.672Z,60.60
2022-12-03T23:51:29.155Z,83.93
2022-12-03T23:53:57.878Z,68.50
2022-12-03T23:56:27.947Z,61.23
2022-12-03T23:58:57.206Z,71.63
